sensor_id;sensor_type;location;lat;lon;timestamp;temperature;humidity
59855;DHT22;45732;52.850;6.896;2023-11-18T00:00:49;3.90;99.90
59855;DHT22;45732;52.850;6.896;2023-11-18T00:03:16;3.90;99.90
59855;DHT22;45732;52.850;6.896;2023-11-18T00:05:42;3.80;99.90
59855;DHT22;45732;52.850;6.896;2023-11-18T00:08:08;3.70;99.90
59855;DHT22;45732;52.850;6.896;2023-11-18T00:10:33;3.60;99.90
59855;DHT22;45732;52.850;6.896;2023-11-18T00:12:59;3.50;99.90
59855;DHT22;45732;52.850;6.896;2023-11-18T00:15:27;3.50;99.90
59855;DHT22;45732;52.850;6.896;2023-11-18T00:17:52;3.50;99.90
59855;DHT22;45732;52.850;6.896;2023-11-18T00:20:18;3.50;99.90
59855;DHT22;45732;52.850;6.896;2023-11-18T00:22:45;3.50;99.90
59855;DHT22;45732;52.850;6.896;2023-11-18T00:25:11;3.40;99.90
59855;DHT22;45732;52.850;6.896;2023-11-18T00:27:39;3.40;99.90
59855;DHT22;45732;52.850;6.896;2023-11-18T00:30:06;3.30;99.90
59855;DHT22;45732;52.850;6.896;2023-11-18T00:32:37;3.30;99.90
59855;DHT22;45732;52.850;6.896;2023-11-18T00:35:03;3.20;99.90
59855;DHT22;45732;52.850;6.896;2023-11-18T00:37:30;3.20;99.90
59855;DHT22;45732;52.850;6.896;2023-11-18T00:39:57;3.10;99.90
59855;DHT22;45732;52.850;6.896;2023-11-18T00:42:23;3.00;99.90
59855;DHT22;45732;52.850;6.896;2023-11-18T00:44:48;3.00;99.90
59855;DHT22;45732;52.850;6.896;2023-11-18T00:47:14;3.00;99.90
59855;DHT22;45732;52.850;6.896;2023-11-18T00:49:40;3.00;99.90
59855;DHT22;45732;52.850;6.896;2023-11-18T00:52:06;3.00;99.90
59855;DHT22;45732;52.850;6.896;2023-11-18T00:54:32;3.00;99.90
59855;DHT22;45732;52.850;6.896;2023-11-18T00:56:57;3.10;99.90
59855;DHT22;45732;52.850;6.896;2023-11-18T00:59:23;3.00;99.90
59855;DHT22;45732;52.850;6.896;2023-11-18T01:01:49;3.10;99.90
59855;DHT22;45732;52.850;6.896;2023-11-18T01:04:15;3.00;99.90
59855;DHT22;45732;52.850;6.896;2023-11-18T01:06:42;3.00;99.90
59855;DHT22;45732;52.850;6.896;2023-11-18T01:09:08;2.90;99.90
59855;DHT22;45732;52.850;6.896;2023-11-18T01:11:35;2.90;99.90
59855;DHT22;45732;52.850;6.896;2023-11-18T01:14:02;2.90;99.90
59855;DHT22;45732;52.850;6.896;2023-11-18T01:16:27;2.90;99.90
59855;DHT22;45732;52.850;6.896;2023-11-18T01:18:54;2.90;99.90
59855;DHT22;45732;52.850;6.896;2023-11-18T01:21:20;2.90;99.90
59855;DHT22;45732;52.850;6.896;2023-11-18T01:23:47;2.80;99.90
59855;DHT22;45732;52.850;6.896;2023-11-18T01:26:14;2.80;99.90
59855;DHT22;45732;52.850;6.896;2023-11-18T01:28:41;2.90;99.90
59855;DHT22;45732;52.850;6.896;2023-11-18T01:31:09;2.90;99.90
59855;DHT22;45732;52.850;6.896;2023-11-18T01:33:38;2.90;99.90
59855;DHT22;45732;52.850;6.896;2023-11-18T01:36:08;2.90;99.90
59855;DHT22;45732;52.850;6.896;2023-11-18T01:38:34;2.80;99.90
59855;DHT22;45732;52.850;6.896;2023-11-18T01:41:00;2.80;99.90
59855;DHT22;45732;52.850;6.896;2023-11-18T01:43:27;2.70;99.90
59855;DHT22;45732;52.850;6.896;2023-11-18T01:45:52;2.70;99.90
59855;DHT22;45732;52.850;6.896;2023-11-18T01:48:19;2.70;99.90
59855;DHT22;45732;52.850;6.896;2023-11-18T01:50:48;2.70;99.90
59855;DHT22;45732;52.850;6.896;2023-11-18T01:53:14;2.70;99.90
59855;DHT22;45732;52.850;6.896;2023-11-18T01:55:41;2.70;99.90
59855;DHT22;45732;52.850;6.896;2023-11-18T01:58:07;2.80;99.90
59855;DHT22;45732;52.850;6.896;2023-11-18T02:00:37;2.80;99.90
59855;DHT22;45732;52.850;6.896;2023-11-18T02:03:05;2.70;99.90
59855;DHT22;45732;52.850;6.896;2023-11-18T02:05:32;2.70;99.90
59855;DHT22;45732;52.850;6.896;2023-11-18T02:08:02;2.70;99.90
59855;DHT22;45732;52.850;6.896;2023-11-18T02:10:31;2.70;99.90
59855;DHT22;45732;52.850;6.896;2023-11-18T02:13:22;2.70;99.90
59855;DHT22;45732;52.850;6.896;2023-11-18T02:15:58;2.70;99.90
59855;DHT22;45732;52.850;6.896;2023-11-18T02:18:25;2.60;99.90
59855;DHT22;45732;52.850;6.896;2023-11-18T02:20:54;2.60;99.90
59855;DHT22;45732;52.850;6.896;2023-11-18T02:23:20;2.60;99.90
59855;DHT22;45732;52.850;6.896;2023-11-18T02:25:48;2.60;99.90
59855;DHT22;45732;52.850;6.896;2023-11-18T02:28:14;2.70;99.90
59855;DHT22;45732;52.850;6.896;2023-11-18T02:30:43;2.70;99.90
59855;DHT22;45732;52.850;6.896;2023-11-18T02:33:25;2.70;99.90
59855;DHT22;45732;52.850;6.896;2023-11-18T02:36:00;2.70;99.90
59855;DHT22;45732;52.850;6.896;2023-11-18T02:38:31;2.70;99.90
59855;DHT22;45732;52.850;6.896;2023-11-18T02:41:01;2.70;99.90
59855;DHT22;45732;52.850;6.896;2023-11-18T02:43:30;2.80;99.90
59855;DHT22;45732;52.850;6.896;2023-11-18T02:45:57;2.90;99.90
59855;DHT22;45732;52.850;6.896;2023-11-18T02:48:23;2.90;99.90
59855;DHT22;45732;52.850;6.896;2023-11-18T02:50:49;3.00;99.90
59855;DHT22;45732;52.850;6.896;2023-11-18T02:53:15;3.10;99.90
59855;DHT22;45732;52.850;6.896;2023-11-18T02:55:40;3.10;99.90
59855;DHT22;45732;52.850;6.896;2023-11-18T02:58:06;3.20;99.90
59855;DHT22;45732;52.850;6.896;2023-11-18T03:00:34;3.20;99.90
59855;DHT22;45732;52.850;6.896;2023-11-18T03:02:59;3.30;99.90
59855;DHT22;45732;52.850;6.896;2023-11-18T03:05:25;3.30;99.90
59855;DHT22;45732;52.850;6.896;2023-11-18T03:07:51;3.40;99.90
59855;DHT22;45732;52.850;6.896;2023-11-18T03:10:20;3.40;99.90
59855;DHT22;45732;52.850;6.896;2023-11-18T03:12:50;3.40;99.90
59855;DHT22;45732;52.850;6.896;2023-11-18T03:15:16;3.20;99.90
59855;DHT22;45732;52.850;6.896;2023-11-18T03:17:46;3.20;99.90
59855;DHT22;45732;52.850;6.896;2023-11-18T03:20:14;3.10;99.90
59855;DHT22;45732;52.850;6.896;2023-11-18T03:22:47;3.00;99.90
59855;DHT22;45732;52.850;6.896;2023-11-18T03:25:13;3.00;99.90
59855;DHT22;45732;52.850;6.896;2023-11-18T03:27:40;3.00;99.90
59855;DHT22;45732;52.850;6.896;2023-11-18T03:30:06;3.00;99.90
59855;DHT22;45732;52.850;6.896;2023-11-18T03:32:34;3.20;99.90
59855;DHT22;45732;52.850;6.896;2023-11-18T03:35:01;3.20;99.90
59855;DHT22;45732;52.850;6.896;2023-11-18T03:37:27;3.30;99.90
59855;DHT22;45732;52.850;6.896;2023-11-18T03:39:53;3.30;99.90
59855;DHT22;45732;52.850;6.896;2023-11-18T03:42:19;3.30;99.90
59855;DHT22;45732;52.850;6.896;2023-11-18T03:44:44;3.30;99.90
59855;DHT22;45732;52.850;6.896;2023-11-18T03:47:13;3.50;99.90
59855;DHT22;45732;52.850;6.896;2023-11-18T03:49:42;3.60;99.90
59855;DHT22;45732;52.850;6.896;2023-11-18T03:52:09;3.60;99.90
59855;DHT22;45732;52.850;6.896;2023-11-18T03:54:34;3.60;99.90
59855;DHT22;45732;52.850;6.896;2023-11-18T03:57:00;3.60;99.90
59855;DHT22;45732;52.850;6.896;2023-11-18T03:59:26;3.60;99.90
59855;DHT22;45732;52.850;6.896;2023-11-18T04:01:51;3.60;99.90
59855;DHT22;45732;52.850;6.896;2023-11-18T04:04:18;3.60;99.90
59855;DHT22;45732;52.850;6.896;2023-11-18T04:06:43;3.70;99.90
59855;DHT22;45732;52.850;6.896;2023-11-18T04:09:10;3.80;99.90
59855;DHT22;45732;52.850;6.896;2023-11-18T04:11:36;3.80;99.90
59855;DHT22;45732;52.850;6.896;2023-11-18T04:14:02;3.80;99.90
59855;DHT22;45732;52.850;6.896;2023-11-18T04:16:29;3.80;99.90
59855;DHT22;45732;52.850;6.896;2023-11-18T04:18:54;3.80;99.90
59855;DHT22;45732;52.850;6.896;2023-11-18T04:21:21;3.70;99.90
59855;DHT22;45732;52.850;6.896;2023-11-18T04:23:47;3.80;99.90
59855;DHT22;45732;52.850;6.896;2023-11-18T04:26:13;3.80;99.90
59855;DHT22;45732;52.850;6.896;2023-11-18T04:28:39;3.80;99.90
59855;DHT22;45732;52.850;6.896;2023-11-18T04:31:05;3.70;99.90
59855;DHT22;45732;52.850;6.896;2023-11-18T04:33:31;3.80;99.90
59855;DHT22;45732;52.850;6.896;2023-11-18T04:35:57;3.70;99.90
59855;DHT22;45732;52.850;6.896;2023-11-18T04:38:23;3.80;99.90
59855;DHT22;45732;52.850;6.896;2023-11-18T04:40:49;3.80;99.90
59855;DHT22;45732;52.850;6.896;2023-11-18T04:43:15;3.80;99.90
59855;DHT22;45732;52.850;6.896;2023-11-18T04:45:44;3.80;99.90
59855;DHT22;45732;52.850;6.896;2023-11-18T04:48:10;3.80;99.90
59855;DHT22;45732;52.850;6.896;2023-11-18T04:50:35;3.80;99.90
59855;DHT22;45732;52.850;6.896;2023-11-18T04:53:01;3.80;99.90
59855;DHT22;45732;52.850;6.896;2023-11-18T04:55:29;3.70;99.90
59855;DHT22;45732;52.850;6.896;2023-11-18T04:57:55;3.80;99.90
59855;DHT22;45732;52.850;6.896;2023-11-18T05:00:21;3.80;99.90
59855;DHT22;45732;52.850;6.896;2023-11-18T05:02:47;3.80;99.90
59855;DHT22;45732;52.850;6.896;2023-11-18T05:05:16;3.90;99.90
59855;DHT22;45732;52.850;6.896;2023-11-18T05:07:43;3.90;99.90
59855;DHT22;45732;52.850;6.896;2023-11-18T05:10:09;3.90;99.90
59855;DHT22;45732;52.850;6.896;2023-11-18T05:12:38;4.00;99.90
59855;DHT22;45732;52.850;6.896;2023-11-18T05:15:06;3.90;99.90
59855;DHT22;45732;52.850;6.896;2023-11-18T05:17:39;3.90;99.90
59855;DHT22;45732;52.850;6.896;2023-11-18T05:20:05;3.90;99.90
59855;DHT22;45732;52.850;6.896;2023-11-18T05:22:34;3.80;99.90
59855;DHT22;45732;52.850;6.896;2023-11-18T05:25:02;3.90;99.90
59855;DHT22;45732;52.850;6.896;2023-11-18T05:27:28;3.90;99.90
59855;DHT22;45732;52.850;6.896;2023-11-18T05:29:53;3.90;99.90
59855;DHT22;45732;52.850;6.896;2023-11-18T05:32:27;3.80;99.90
59855;DHT22;45732;52.850;6.896;2023-11-18T05:34:53;3.90;99.90
59855;DHT22;45732;52.850;6.896;2023-11-18T05:37:20;4.00;99.90
59855;DHT22;45732;52.850;6.896;2023-11-18T05:39:47;4.00;99.90
59855;DHT22;45732;52.850;6.896;2023-11-18T05:42:15;4.00;99.90
59855;DHT22;45732;52.850;6.896;2023-11-18T05:44:41;4.10;99.90
59855;DHT22;45732;52.850;6.896;2023-11-18T05:47:08;4.10;99.90
59855;DHT22;45732;52.850;6.896;2023-11-18T05:49:37;4.10;99.90
59855;DHT22;45732;52.850;6.896;2023-11-18T05:52:04;4.10;99.90
59855;DHT22;45732;52.850;6.896;2023-11-18T05:54:29;4.20;99.90
59855;DHT22;45732;52.850;6.896;2023-11-18T05:56:56;4.20;99.90
59855;DHT22;45732;52.850;6.896;2023-11-18T05:59:21;4.20;99.90
59855;DHT22;45732;52.850;6.896;2023-11-18T06:01:47;4.20;99.90
59855;DHT22;45732;52.850;6.896;2023-11-18T06:04:13;4.20;99.90
59855;DHT22;45732;52.850;6.896;2023-11-18T06:06:39;4.10;99.90
59855;DHT22;45732;52.850;6.896;2023-11-18T06:09:04;4.20;99.90
59855;DHT22;45732;52.850;6.896;2023-11-18T06:11:34;4.20;99.90
59855;DHT22;45732;52.850;6.896;2023-11-18T06:14:00;4.20;99.90
59855;DHT22;45732;52.850;6.896;2023-11-18T06:16:26;4.20;99.90
59855;DHT22;45732;52.850;6.896;2023-11-18T06:18:54;4.30;99.90
59855;DHT22;45732;52.850;6.896;2023-11-18T06:21:24;4.30;99.90
59855;DHT22;45732;52.850;6.896;2023-11-18T06:23:50;4.30;99.90
59855;DHT22;45732;52.850;6.896;2023-11-18T06:26:17;4.30;99.90
59855;DHT22;45732;52.850;6.896;2023-11-18T06:28:46;4.30;99.90
59855;DHT22;45732;52.850;6.896;2023-11-18T06:31:12;4.20;99.90
59855;DHT22;45732;52.850;6.896;2023-11-18T06:33:44;4.30;99.90
59855;DHT22;45732;52.850;6.896;2023-11-18T06:38:38;4.30;99.90
59855;DHT22;45732;52.850;6.896;2023-11-18T06:41:04;4.30;99.90
59855;DHT22;45732;52.850;6.896;2023-11-18T06:43:35;4.30;99.90
59855;DHT22;45732;52.850;6.896;2023-11-18T06:46:29;4.30;99.90
59855;DHT22;45732;52.850;6.896;2023-11-18T06:48:59;4.40;99.90
59855;DHT22;45732;52.850;6.896;2023-11-18T06:51:29;4.40;99.90
59855;DHT22;45732;52.850;6.896;2023-11-18T06:53:56;4.40;99.90
59855;DHT22;45732;52.850;6.896;2023-11-18T06:56:26;4.40;99.90
59855;DHT22;45732;52.850;6.896;2023-11-18T06:58:52;4.40;99.90
59855;DHT22;45732;52.850;6.896;2023-11-18T07:01:18;4.40;99.90
59855;DHT22;45732;52.850;6.896;2023-11-18T07:03:45;4.40;99.90
59855;DHT22;45732;52.850;6.896;2023-11-18T07:06:16;4.40;99.90
59855;DHT22;45732;52.850;6.896;2023-11-18T07:08:48;4.30;99.90
59855;DHT22;45732;52.850;6.896;2023-11-18T07:11:18;4.40;99.90
59855;DHT22;45732;52.850;6.896;2023-11-18T07:13:44;4.40;99.90
59855;DHT22;45732;52.850;6.896;2023-11-18T07:16:10;4.40;99.90
59855;DHT22;45732;52.850;6.896;2023-11-18T07:18:37;4.40;99.90
59855;DHT22;45732;52.850;6.896;2023-11-18T07:21:04;4.40;99.90
59855;DHT22;45732;52.850;6.896;2023-11-18T07:23:31;4.40;99.90
59855;DHT22;45732;52.850;6.896;2023-11-18T07:25:57;4.40;99.90
59855;DHT22;45732;52.850;6.896;2023-11-18T07:28:23;4.40;99.90
59855;DHT22;45732;52.850;6.896;2023-11-18T07:30:49;4.40;99.90
59855;DHT22;45732;52.850;6.896;2023-11-18T07:33:16;4.40;99.90
59855;DHT22;45732;52.850;6.896;2023-11-18T07:35:46;4.50;99.90
59855;DHT22;45732;52.850;6.896;2023-11-18T07:38:12;4.50;99.90
59855;DHT22;45732;52.850;6.896;2023-11-18T07:40:38;4.50;99.90
59855;DHT22;45732;52.850;6.896;2023-11-18T07:43:08;4.50;99.90
59855;DHT22;45732;52.850;6.896;2023-11-18T07:45:35;4.60;99.90
59855;DHT22;45732;52.850;6.896;2023-11-18T07:48:13;4.60;99.90
59855;DHT22;45732;52.850;6.896;2023-11-18T07:50:43;4.60;99.90
59855;DHT22;45732;52.850;6.896;2023-11-18T07:53:13;4.60;99.90
59855;DHT22;45732;52.850;6.896;2023-11-18T07:55:39;4.60;99.90
59855;DHT22;45732;52.850;6.896;2023-11-18T07:58:11;4.60;99.90
59855;DHT22;45732;52.850;6.896;2023-11-18T08:00:40;4.70;99.90
59855;DHT22;45732;52.850;6.896;2023-11-18T08:03:07;4.70;99.90
59855;DHT22;45732;52.850;6.896;2023-11-18T08:05:46;4.70;99.90
59855;DHT22;45732;52.850;6.896;2023-11-18T08:08:12;4.60;99.90
59855;DHT22;45732;52.850;6.896;2023-11-18T08:10:39;4.70;99.90
59855;DHT22;45732;52.850;6.896;2023-11-18T08:13:06;4.60;99.90
59855;DHT22;45732;52.850;6.896;2023-11-18T08:15:37;4.70;99.90
59855;DHT22;45732;52.850;6.896;2023-11-18T08:18:03;4.70;99.90
59855;DHT22;45732;52.850;6.896;2023-11-18T08:20:29;4.60;99.90
59855;DHT22;45732;52.850;6.896;2023-11-18T08:22:56;4.70;99.90
59855;DHT22;45732;52.850;6.896;2023-11-18T08:25:22;4.70;99.90
59855;DHT22;45732;52.850;6.896;2023-11-18T08:27:48;4.70;99.90
59855;DHT22;45732;52.850;6.896;2023-11-18T08:30:14;4.80;99.90
59855;DHT22;45732;52.850;6.896;2023-11-18T08:32:41;4.70;99.90
59855;DHT22;45732;52.850;6.896;2023-11-18T08:35:09;4.70;99.90
59855;DHT22;45732;52.850;6.896;2023-11-18T08:37:38;4.70;99.90
59855;DHT22;45732;52.850;6.896;2023-11-18T08:40:07;4.70;99.90
59855;DHT22;45732;52.850;6.896;2023-11-18T08:45:14;4.80;99.90
59855;DHT22;45732;52.850;6.896;2023-11-18T08:47:43;4.80;99.90
59855;DHT22;45732;52.850;6.896;2023-11-18T08:50:08;4.90;99.90
59855;DHT22;45732;52.850;6.896;2023-11-18T08:52:38;4.90;99.90
59855;DHT22;45732;52.850;6.896;2023-11-18T08:55:10;4.90;99.90
59855;DHT22;45732;52.850;6.896;2023-11-18T08:57:47;4.90;99.90
59855;DHT22;45732;52.850;6.896;2023-11-18T09:00:28;4.90;99.90
59855;DHT22;45732;52.850;6.896;2023-11-18T09:05:46;4.90;99.90
59855;DHT22;45732;52.850;6.896;2023-11-18T09:08:28;5.00;99.90
59855;DHT22;45732;52.850;6.896;2023-11-18T09:10:56;5.00;99.90
59855;DHT22;45732;52.850;6.896;2023-11-18T09:13:23;4.90;99.90
59855;DHT22;45732;52.850;6.896;2023-11-18T09:16:15;5.00;99.90
59855;DHT22;45732;52.850;6.896;2023-11-18T09:18:43;5.00;99.90
59855;DHT22;45732;52.850;6.896;2023-11-18T09:21:11;5.00;99.90
59855;DHT22;45732;52.850;6.896;2023-11-18T09:23:41;5.10;99.90
59855;DHT22;45732;52.850;6.896;2023-11-18T09:26:07;5.10;99.90
59855;DHT22;45732;52.850;6.896;2023-11-18T09:28:36;5.20;99.90
59855;DHT22;45732;52.850;6.896;2023-11-18T09:31:06;5.10;99.90
59855;DHT22;45732;52.850;6.896;2023-11-18T09:33:37;5.20;99.90
59855;DHT22;45732;52.850;6.896;2023-11-18T09:36:07;5.20;99.90
59855;DHT22;45732;52.850;6.896;2023-11-18T09:38:34;5.20;99.90
59855;DHT22;45732;52.850;6.896;2023-11-18T09:41:02;5.30;99.90
59855;DHT22;45732;52.850;6.896;2023-11-18T09:43:30;5.30;99.90
59855;DHT22;45732;52.850;6.896;2023-11-18T09:46:07;5.30;99.90
59855;DHT22;45732;52.850;6.896;2023-11-18T09:48:47;5.30;99.90
59855;DHT22;45732;52.850;6.896;2023-11-18T09:51:22;5.40;99.90
59855;DHT22;45732;52.850;6.896;2023-11-18T09:53:53;5.40;99.90
59855;DHT22;45732;52.850;6.896;2023-11-18T09:59:31;5.40;99.90
59855;DHT22;45732;52.850;6.896;2023-11-18T10:02:00;5.40;99.90
59855;DHT22;45732;52.850;6.896;2023-11-18T10:04:28;5.40;99.90
59855;DHT22;45732;52.850;6.896;2023-11-18T10:06:54;5.40;99.90
59855;DHT22;45732;52.850;6.896;2023-11-18T10:09:23;5.40;99.90
59855;DHT22;45732;52.850;6.896;2023-11-18T10:12:02;5.40;99.90
59855;DHT22;45732;52.850;6.896;2023-11-18T10:14:32;5.50;99.90
59855;DHT22;45732;52.850;6.896;2023-11-18T10:16:58;5.50;99.90
59855;DHT22;45732;52.850;6.896;2023-11-18T10:19:24;5.50;99.90
59855;DHT22;45732;52.850;6.896;2023-11-18T10:21:51;5.60;99.90
59855;DHT22;45732;52.850;6.896;2023-11-18T10:24:17;5.50;99.90
59855;DHT22;45732;52.850;6.896;2023-11-18T10:26:54;5.60;99.90
59855;DHT22;45732;52.850;6.896;2023-11-18T10:29:26;5.60;99.90
59855;DHT22;45732;52.850;6.896;2023-11-18T10:32:07;5.50;99.90
59855;DHT22;45732;52.850;6.896;2023-11-18T10:34:35;5.60;99.90
59855;DHT22;45732;52.850;6.896;2023-11-18T10:37:04;5.60;99.90
59855;DHT22;45732;52.850;6.896;2023-11-18T10:39:31;5.60;99.90
59855;DHT22;45732;52.850;6.896;2023-11-18T10:42:01;5.70;99.90
59855;DHT22;45732;52.850;6.896;2023-11-18T10:44:27;5.70;99.90
59855;DHT22;45732;52.850;6.896;2023-11-18T10:46:55;5.70;99.90
59855;DHT22;45732;52.850;6.896;2023-11-18T10:49:24;5.70;99.90
59855;DHT22;45732;52.850;6.896;2023-11-18T10:51:51;5.70;99.90
59855;DHT22;45732;52.850;6.896;2023-11-18T10:54:17;5.70;99.90
59855;DHT22;45732;52.850;6.896;2023-11-18T10:56:52;5.70;99.90
59855;DHT22;45732;52.850;6.896;2023-11-18T10:59:22;5.70;99.90
59855;DHT22;45732;52.850;6.896;2023-11-18T11:01:48;5.70;99.90
59855;DHT22;45732;52.850;6.896;2023-11-18T11:04:15;5.70;99.90
59855;DHT22;45732;52.850;6.896;2023-11-18T11:06:50;5.70;99.90
59855;DHT22;45732;52.850;6.896;2023-11-18T11:09:23;5.70;99.90
59855;DHT22;45732;52.850;6.896;2023-11-18T11:12:10;5.70;99.90
59855;DHT22;45732;52.850;6.896;2023-11-18T11:14:49;5.70;99.90
59855;DHT22;45732;52.850;6.896;2023-11-18T11:17:20;5.70;99.90
59855;DHT22;45732;52.850;6.896;2023-11-18T11:20:07;5.70;99.90
59855;DHT22;45732;52.850;6.896;2023-11-18T11:25:33;5.70;99.90
59855;DHT22;45732;52.850;6.896;2023-11-18T11:28:11;5.70;99.90
59855;DHT22;45732;52.850;6.896;2023-11-18T11:30:50;5.70;99.90
59855;DHT22;45732;52.850;6.896;2023-11-18T11:35:49;5.80;99.90
59855;DHT22;45732;52.850;6.896;2023-11-18T11:38:23;5.80;99.90
59855;DHT22;45732;52.850;6.896;2023-11-18T11:40:50;5.80;99.90
59855;DHT22;45732;52.850;6.896;2023-11-18T11:43:18;5.80;99.90
59855;DHT22;45732;52.850;6.896;2023-11-18T11:45:49;5.80;99.90
59855;DHT22;45732;52.850;6.896;2023-11-18T11:48:17;5.90;99.90
59855;DHT22;45732;52.850;6.896;2023-11-18T11:51:00;5.80;99.90
59855;DHT22;45732;52.850;6.896;2023-11-18T11:53:35;5.90;99.90
59855;DHT22;45732;52.850;6.896;2023-11-18T11:56:05;5.90;99.90
59855;DHT22;45732;52.850;6.896;2023-11-18T11:58:35;5.90;99.90
59855;DHT22;45732;52.850;6.896;2023-11-18T12:01:24;5.90;99.90
59855;DHT22;45732;52.850;6.896;2023-11-18T12:03:56;5.90;99.90
59855;DHT22;45732;52.850;6.896;2023-11-18T12:06:26;6.00;99.90
59855;DHT22;45732;52.850;6.896;2023-11-18T12:08:52;6.00;99.90
59855;DHT22;45732;52.850;6.896;2023-11-18T12:11:19;6.00;99.90
59855;DHT22;45732;52.850;6.896;2023-11-18T12:14:01;6.00;99.90
59855;DHT22;45732;52.850;6.896;2023-11-18T12:16:57;6.00;99.90
59855;DHT22;45732;52.850;6.896;2023-11-18T12:19:33;6.00;99.90
59855;DHT22;45732;52.850;6.896;2023-11-18T12:22:23;5.90;99.90
59855;DHT22;45732;52.850;6.896;2023-11-18T12:36:00;6.00;99.90
59855;DHT22;45732;52.850;6.896;2023-11-18T12:41:42;6.00;99.90
59855;DHT22;45732;52.850;6.896;2023-11-18T12:44:36;6.00;99.90
59855;DHT22;45732;52.850;6.896;2023-11-18T12:47:05;6.10;99.90
59855;DHT22;45732;52.850;6.896;2023-11-18T12:49:44;6.00;99.90
59855;DHT22;45732;52.850;6.896;2023-11-18T12:52:11;6.10;99.90
59855;DHT22;45732;52.850;6.896;2023-11-18T12:54:40;6.10;99.90
59855;DHT22;45732;52.850;6.896;2023-11-18T12:57:12;6.10;99.90
59855;DHT22;45732;52.850;6.896;2023-11-18T12:59:41;6.10;99.90
59855;DHT22;45732;52.850;6.896;2023-11-18T13:02:08;6.10;99.90
59855;DHT22;45732;52.850;6.896;2023-11-18T13:04:39;6.10;99.90
59855;DHT22;45732;52.850;6.896;2023-11-18T13:07:06;6.10;99.90
59855;DHT22;45732;52.850;6.896;2023-11-18T13:09:34;6.10;99.90
59855;DHT22;45732;52.850;6.896;2023-11-18T13:12:02;6.00;99.90
59855;DHT22;45732;52.850;6.896;2023-11-18T13:14:34;6.10;99.90
59855;DHT22;45732;52.850;6.896;2023-11-18T13:17:14;6.10;99.90
59855;DHT22;45732;52.850;6.896;2023-11-18T13:19:44;6.10;99.90
59855;DHT22;45732;52.850;6.896;2023-11-18T13:22:12;6.10;99.90
59855;DHT22;45732;52.850;6.896;2023-11-18T13:24:39;6.00;99.90
59855;DHT22;45732;52.850;6.896;2023-11-18T13:27:07;6.10;99.90
59855;DHT22;45732;52.850;6.896;2023-11-18T13:29:36;6.10;99.90
59855;DHT22;45732;52.850;6.896;2023-11-18T13:32:02;6.00;99.90
59855;DHT22;45732;52.850;6.896;2023-11-18T13:34:35;6.00;99.90
59855;DHT22;45732;52.850;6.896;2023-11-18T13:37:06;6.10;99.90
59855;DHT22;45732;52.850;6.896;2023-11-18T13:39:33;6.10;99.90
59855;DHT22;45732;52.850;6.896;2023-11-18T13:42:18;6.20;99.90
59855;DHT22;45732;52.850;6.896;2023-11-18T13:44:44;6.20;99.90
59855;DHT22;45732;52.850;6.896;2023-11-18T13:47:11;6.10;99.90
59855;DHT22;45732;52.850;6.896;2023-11-18T13:49:38;6.20;99.90
59855;DHT22;45732;52.850;6.896;2023-11-18T13:52:07;6.20;99.90
59855;DHT22;45732;52.850;6.896;2023-11-18T13:54:39;6.20;99.90
59855;DHT22;45732;52.850;6.896;2023-11-18T13:57:05;6.20;99.90
59855;DHT22;45732;52.850;6.896;2023-11-18T13:59:32;6.30;99.90
59855;DHT22;45732;52.850;6.896;2023-11-18T14:01:59;6.30;99.90
59855;DHT22;45732;52.850;6.896;2023-11-18T14:04:33;6.30;99.90
59855;DHT22;45732;52.850;6.896;2023-11-18T14:07:03;6.30;99.90
59855;DHT22;45732;52.850;6.896;2023-11-18T14:09:35;6.30;99.90
59855;DHT22;45732;52.850;6.896;2023-11-18T14:12:11;6.40;99.90
59855;DHT22;45732;52.850;6.896;2023-11-18T14:14:37;6.40;99.90
59855;DHT22;45732;52.850;6.896;2023-11-18T14:17:04;6.40;99.90
59855;DHT22;45732;52.850;6.896;2023-11-18T14:19:31;6.40;99.90
59855;DHT22;45732;52.850;6.896;2023-11-18T14:21:57;6.40;99.90
59855;DHT22;45732;52.850;6.896;2023-11-18T14:24:24;6.40;99.90
59855;DHT22;45732;52.850;6.896;2023-11-18T14:26:53;6.40;99.90
59855;DHT22;45732;52.850;6.896;2023-11-18T14:29:19;6.40;99.90
59855;DHT22;45732;52.850;6.896;2023-11-18T14:31:45;6.50;99.90
59855;DHT22;45732;52.850;6.896;2023-11-18T14:34:11;6.50;99.90
59855;DHT22;45732;52.850;6.896;2023-11-18T14:36:37;6.40;99.90
59855;DHT22;45732;52.850;6.896;2023-11-18T14:39:03;6.40;99.90
59855;DHT22;45732;52.850;6.896;2023-11-18T14:41:32;6.50;99.90
59855;DHT22;45732;52.850;6.896;2023-11-18T14:43:59;6.50;99.90
59855;DHT22;45732;52.850;6.896;2023-11-18T14:46:26;6.50;99.90
59855;DHT22;45732;52.850;6.896;2023-11-18T14:48:52;6.50;99.90
59855;DHT22;45732;52.850;6.896;2023-11-18T14:51:18;6.50;99.90
59855;DHT22;45732;52.850;6.896;2023-11-18T14:53:44;6.50;99.90
59855;DHT22;45732;52.850;6.896;2023-11-18T14:56:10;6.50;99.90
59855;DHT22;45732;52.850;6.896;2023-11-18T14:58:36;6.50;99.90
59855;DHT22;45732;52.850;6.896;2023-11-18T15:01:02;6.50;99.90
59855;DHT22;45732;52.850;6.896;2023-11-18T15:03:28;6.50;99.90
59855;DHT22;45732;52.850;6.896;2023-11-18T15:05:55;6.50;99.90
59855;DHT22;45732;52.850;6.896;2023-11-18T15:08:20;6.50;99.90
59855;DHT22;45732;52.850;6.896;2023-11-18T15:10:46;6.60;99.90
59855;DHT22;45732;52.850;6.896;2023-11-18T15:13:12;6.60;99.90
59855;DHT22;45732;52.850;6.896;2023-11-18T15:15:41;6.60;99.90
59855;DHT22;45732;52.850;6.896;2023-11-18T15:18:07;6.60;99.90
59855;DHT22;45732;52.850;6.896;2023-11-18T15:20:43;6.60;99.90
59855;DHT22;45732;52.850;6.896;2023-11-18T15:23:09;6.60;99.90
59855;DHT22;45732;52.850;6.896;2023-11-18T15:25:36;6.60;99.90
59855;DHT22;45732;52.850;6.896;2023-11-18T15:28:01;6.60;99.90
59855;DHT22;45732;52.850;6.896;2023-11-18T15:30:27;6.60;99.90
59855;DHT22;45732;52.850;6.896;2023-11-18T15:32:53;6.60;99.90
59855;DHT22;45732;52.850;6.896;2023-11-18T15:35:19;6.60;99.90
59855;DHT22;45732;52.850;6.896;2023-11-18T15:37:46;6.70;99.90
59855;DHT22;45732;52.850;6.896;2023-11-18T15:40:14;6.60;99.90
59855;DHT22;45732;52.850;6.896;2023-11-18T15:42:46;6.70;99.90
59855;DHT22;45732;52.850;6.896;2023-11-18T15:45:16;6.70;99.90
59855;DHT22;45732;52.850;6.896;2023-11-18T15:47:42;6.70;99.90
59855;DHT22;45732;52.850;6.896;2023-11-18T15:50:10;6.70;99.90
59855;DHT22;45732;52.850;6.896;2023-11-18T15:52:45;6.70;99.90
59855;DHT22;45732;52.850;6.896;2023-11-18T15:55:11;6.70;99.90
59855;DHT22;45732;52.850;6.896;2023-11-18T15:57:45;6.80;99.90
59855;DHT22;45732;52.850;6.896;2023-11-18T16:00:13;6.80;99.90
59855;DHT22;45732;52.850;6.896;2023-11-18T16:02:43;6.80;99.90
59855;DHT22;45732;52.850;6.896;2023-11-18T16:05:11;6.80;99.90
59855;DHT22;45732;52.850;6.896;2023-11-18T16:07:39;6.80;99.90
59855;DHT22;45732;52.850;6.896;2023-11-18T16:10:06;6.80;99.90
59855;DHT22;45732;52.850;6.896;2023-11-18T16:12:32;6.80;99.90
59855;DHT22;45732;52.850;6.896;2023-11-18T16:14:57;6.80;99.90
59855;DHT22;45732;52.850;6.896;2023-11-18T16:17:23;6.80;99.90
59855;DHT22;45732;52.850;6.896;2023-11-18T16:19:49;6.90;99.90
59855;DHT22;45732;52.850;6.896;2023-11-18T16:22:15;6.90;99.90
59855;DHT22;45732;52.850;6.896;2023-11-18T16:24:41;6.90;99.90